createdAt,value
2016-10-23T00:00:58.970Z,75.73
2016-10-23T00:02:11.872Z,74.96
2016-10-23T00:03:24.044Z,74.96
2016-10-23T00:04:37.269Z,74.86
2016-10-23T00:05:49.671Z,75.63
2016-10-23T00:07:02.070Z,75.73
2016-10-23T00:08:14.990Z,75.15
2016-10-23T00:09:28.418Z,75.24
2016-10-23T00:10:41.870Z,75.24
2016-10-23T00:11:55.347Z,75.44
2016-10-23T00:13:08.259Z,75.54
2016-10-23T00:14:21.334Z,74.96
2016-10-23T00:15:34.252Z,75.54
2016-10-23T00:16:47.637Z,75.63
2016-10-23T00:18:00.545Z,75.63
2016-10-23T00:19:14.021Z,75.34
2016-10-23T00:20:26.964Z,75.24
2016-10-23T00:21:40.457Z,75.44
2016-10-23T00:22:53.334Z,75.24
2016-10-23T00:24:06.771Z,75.24
2016-10-23T00:25:19.337Z,75.82
2016-10-23T00:26:32.260Z,76.11
2016-10-23T00:27:45.199Z,75.82
2016-10-23T00:28:58.687Z,75.92
2016-10-23T00:30:11.683Z,75.92
2016-10-23T00:31:24.167Z,76.11
2016-10-23T00:32:37.078Z,76.69
2016-10-23T00:33:50.045Z,76.59
2016-10-23T00:35:02.971Z,76.5
2016-10-23T00:36:16.050Z,76.26
2016-10-23T00:37:29.000Z,76.31
2016-10-23T00:38:41.938Z,76.46
2016-10-23T00:39:54.838Z,76.69
2016-10-23T00:41:07.239Z,76.69
2016-10-23T00:42:20.689Z,76.5
2016-10-23T00:43:33.629Z,76.59
2016-10-23T00:44:46.028Z,76.65
2016-10-23T00:45:58.940Z,76.94
2016-10-23T00:47:11.561Z,76.98
2016-10-23T00:48:23.901Z,76.75
2016-10-23T00:49:36.268Z,76.78
2016-10-23T00:50:49.769Z,76.75
2016-10-23T00:52:03.224Z,76.94
2016-10-23T00:53:16.155Z,76.94
2016-10-23T00:54:29.036Z,77.04
2016-10-23T00:55:41.491Z,76.94
2016-10-23T00:56:53.873Z,76.94
2016-10-23T00:58:06.999Z,76.94
2016-10-23T00:59:19.956Z,77.23
2016-10-23T01:00:32.822Z,77.9
2016-10-23T01:01:45.742Z,77.81
2016-10-23T01:02:58.661Z,77.71
2016-10-23T01:04:10.574Z,77.81
2016-10-23T01:05:23.536Z,78.28
2016-10-23T01:06:35.952Z,77.71
2016-10-23T01:07:49.354Z,78.28
2016-10-23T01:09:01.875Z,78.48
2016-10-23T01:10:14.778Z,78.77
2016-10-23T01:11:27.173Z,78.77
2016-10-23T01:12:39.606Z,78.96
2016-10-23T01:13:51.997Z,78.96
2016-10-23T01:15:05.025Z,79.25
2016-10-23T01:16:18.416Z,79.25
2016-10-23T01:17:31.869Z,79.15
2016-10-23T01:18:45.326Z,79.44
2016-10-23T01:19:57.837Z,79.15
2016-10-23T01:21:11.347Z,79.53
2016-10-23T01:22:24.834Z,79.05
2016-10-23T01:23:37.211Z,79.53
2016-10-23T01:24:49.641Z,79.25
2016-10-23T01:26:02.562Z,79.05
2016-10-23T01:27:15.461Z,79.35
2016-10-23T01:28:27.829Z,79.44
2016-10-23T01:29:40.817Z,79.25
2016-10-23T01:30:53.399Z,79.05
2016-10-23T01:32:05.815Z,79.25
2016-10-23T01:33:19.192Z,79.25
2016-10-23T01:34:32.652Z,78.86
2016-10-23T01:35:46.102Z,78.96
2016-10-23T01:36:59.714Z,78.86
2016-10-23T01:38:12.647Z,79.05
2016-10-23T01:39:26.086Z,79.15
2016-10-23T01:40:37.988Z,78.96
2016-10-23T01:41:51.177Z,78.77
2016-10-23T01:43:03.557Z,78.67
2016-10-23T01:44:15.391Z,78.67
2016-10-23T01:45:28.816Z,79.15
2016-10-23T01:46:42.253Z,78.67
2016-10-23T01:47:54.241Z,78.48
2016-10-23T01:49:07.195Z,78.19
2016-10-23T01:50:20.629Z,78.09
2016-10-23T01:51:33.594Z,78.19
2016-10-23T01:52:46.704Z,78.28
2016-10-23T01:54:00.198Z,78.58
2016-10-23T01:55:13.678Z,78.28
2016-10-23T01:56:26.091Z,78.09
2016-10-23T01:57:37.960Z,78.09
2016-10-23T01:58:50.922Z,78.09
2016-10-23T02:00:03.334Z,78.38
2016-10-23T02:01:16.269Z,78.09
2016-10-23T02:02:29.166Z,78.48
2016-10-23T02:03:42.775Z,78.28
2016-10-23T02:04:55.145Z,78.19
2016-10-23T02:06:08.089Z,78.48
2016-10-23T02:07:20.488Z,77.81
2016-10-23T02:08:32.413Z,78.09
2016-10-23T02:09:44.281Z,78.09
2016-10-23T02:10:56.658Z,77.71
2016-10-23T02:12:10.091Z,77.71
2016-10-23T02:13:23.573Z,78.09
2016-10-23T02:14:36.075Z,77.71
2016-10-23T02:15:49.006Z,77.51
2016-10-23T02:17:02.474Z,78.09
2016-10-23T02:18:15.932Z,77.9
2016-10-23T02:19:28.866Z,77.61
2016-10-23T02:20:41.495Z,77.81
2016-10-23T02:21:53.348Z,78.38
2016-10-23T02:23:06.854Z,78.19
2016-10-23T02:24:19.799Z,77.61
2016-10-23T02:25:33.406Z,77.61
2016-10-23T02:26:46.868Z,78
2016-10-23T02:27:59.822Z,77.71
2016-10-23T02:29:12.784Z,77.51
2016-10-23T02:30:25.206Z,77.81
2016-10-23T02:31:38.120Z,77.81
2016-10-23T02:32:51.032Z,77.81
2016-10-23T02:34:02.947Z,77.71
2016-10-23T02:35:16.397Z,78
2016-10-23T02:37:00.839Z,78
2016-10-23T02:38:13.870Z,78.58
2016-10-23T02:39:26.360Z,78.58
2016-10-23T02:40:39.352Z,78.58
2016-10-23T02:41:52.913Z,78.34
2016-10-23T02:43:06.505Z,78.38
2016-10-23T02:44:19.034Z,78.48
2016-10-23T02:45:32.003Z,78.48
2016-10-23T02:46:44.974Z,78.38
2016-10-23T02:47:57.034Z,78.48
2016-10-23T02:49:10.013Z,78.34
2016-10-23T02:50:23.492Z,78.48
2016-10-23T02:51:36.496Z,78.09
2016-10-23T02:52:48.959Z,78.38
2016-10-23T02:54:01.996Z,78.19
2016-10-23T02:55:14.980Z,78.09
2016-10-23T02:56:26.916Z,77.9
2016-10-23T02:57:39.914Z,78.48
2016-10-23T02:58:53.650Z,78.28
2016-10-23T03:00:05.659Z,78.19
2016-10-23T03:01:18.650Z,78.28
2016-10-23T03:02:31.671Z,78.28
2016-10-23T03:03:45.172Z,78.38
2016-10-23T03:04:58.655Z,78.19
2016-10-23T03:06:11.627Z,78.19
2016-10-23T03:07:24.072Z,78.38
2016-10-23T03:08:37.673Z,77.9
2016-10-23T03:09:50.786Z,78.48
2016-10-23T03:11:04.344Z,78.48
2016-10-23T03:12:17.356Z,78.19
2016-10-23T03:13:30.325Z,78.09
2016-10-23T03:14:42.871Z,78.58
2016-10-23T03:15:55.878Z,78.19
2016-10-23T03:17:08.853Z,78.09
2016-10-23T03:18:21.342Z,77.86
2016-10-23T03:19:35.048Z,78.38
2016-10-23T03:20:49.122Z,78.38
2016-10-23T03:22:03.015Z,78.38
2016-10-23T03:23:15.466Z,78.48
2016-10-23T03:24:28.416Z,78.67
2016-10-23T03:25:41.909Z,78.67
2016-10-23T03:26:55.008Z,79.11
2016-10-23T03:28:07.552Z,78.86
2016-10-23T03:29:20.541Z,78.77
2016-10-23T03:30:33.616Z,78.67
2016-10-23T03:31:45.242Z,79.05
2016-10-23T03:32:57.203Z,78.86
2016-10-23T03:34:10.248Z,79.11
2016-10-23T03:35:23.248Z,78.92
2016-10-23T03:36:36.227Z,78.83
2016-10-23T03:37:49.808Z,79.25
2016-10-23T03:39:01.863Z,78.96
2016-10-23T03:40:15.401Z,79.02
2016-10-23T03:41:28.911Z,79.02
2016-10-23T03:42:42.659Z,78.86
2016-10-23T03:43:56.159Z,78.83
2016-10-23T03:45:09.231Z,78.92
2016-10-23T03:46:21.786Z,78.92
2016-10-23T03:47:34.376Z,79.15
2016-10-23T03:48:47.869Z,78.48
2016-10-23T03:50:01.526Z,79.11
2016-10-23T03:51:14.495Z,79.02
2016-10-23T03:52:27.570Z,79.15
2016-10-23T03:53:40.203Z,78.96
2016-10-23T03:54:53.666Z,78.86
2016-10-23T03:56:06.112Z,79.02
2016-10-23T03:57:19.696Z,78.73
2016-10-23T03:58:33.194Z,79.11
2016-10-23T03:59:46.962Z,79.02
2016-10-23T04:01:00.457Z,79.15
2016-10-23T04:02:13.482Z,79.21
2016-10-23T04:03:27.146Z,79.11
2016-10-23T04:04:40.255Z,79.11
2016-10-23T04:05:53.279Z,78.92
2016-10-23T04:07:06.816Z,79.21
2016-10-23T04:08:19.842Z,78.92
2016-10-23T04:09:32.345Z,79.11
2016-10-23T04:10:45.452Z,79.21
2016-10-23T04:11:58.965Z,79.5
2016-10-23T04:13:11.489Z,79.6
2016-10-23T04:14:25.068Z,79.79
2016-10-23T04:15:38.205Z,79.79
2016-10-23T04:16:51.810Z,79.6
2016-10-23T04:18:05.380Z,79.6
2016-10-23T04:19:17.847Z,79.4
2016-10-23T04:20:31.395Z,79.5
2016-10-23T04:21:43.451Z,79.21
2016-10-23T04:22:56.450Z,79.69
2016-10-23T04:24:08.930Z,79.69
2016-10-23T04:25:22.527Z,79.69
2016-10-23T04:26:35.657Z,79.11
2016-10-23T04:27:48.112Z,79.21
2016-10-23T04:29:01.613Z,79.5
2016-10-23T04:30:13.499Z,79.98
2016-10-23T04:31:25.924Z,79.92
2016-10-23T04:32:39.058Z,79.98
2016-10-23T04:33:52.599Z,79.88
2016-10-23T04:35:05.035Z,79.88
2016-10-23T04:36:18.464Z,80.07
2016-10-23T04:37:32.086Z,80.02
2016-10-23T04:38:45.049Z,79.88
2016-10-23T04:39:57.951Z,80.3
2016-10-23T04:41:10.936Z,80.07
2016-10-23T04:42:24.484Z,79.79
2016-10-23T04:43:38.160Z,80.27
2016-10-23T04:44:51.120Z,80.27
2016-10-23T04:46:03.500Z,79.98
2016-10-23T04:47:16.452Z,80.55
2016-10-23T04:48:28.529Z,80.75
2016-10-23T04:49:41.440Z,80.75
2016-10-23T04:50:54.954Z,80.27
2016-10-23T04:52:08.393Z,80.27
2016-10-23T04:53:21.862Z,80.27
2016-10-23T04:54:34.456Z,80.65
2016-10-23T04:55:46.842Z,80.55
2016-10-23T04:56:59.202Z,80.36
2016-10-23T04:58:11.017Z,80.17
2016-10-23T04:59:23.978Z,80.17
2016-10-23T05:00:37.400Z,80.36
2016-10-23T05:01:50.369Z,80.46
2016-10-23T05:03:02.806Z,80.46
2016-10-23T05:04:15.760Z,80.46
2016-10-23T05:05:29.337Z,80.46
2016-10-23T05:06:41.750Z,80.65
2016-10-23T05:07:54.723Z,80.46
2016-10-23T05:09:07.154Z,80.36
2016-10-23T05:10:19.682Z,80.46
2016-10-23T05:11:32.112Z,80.36
2016-10-23T05:12:45.561Z,80.46
2016-10-23T05:13:59.038Z,80.17
2016-10-23T05:15:12.041Z,80.75
2016-10-23T05:16:25.101Z,80.94
2016-10-23T05:17:38.477Z,80.07
2016-10-23T05:18:51.423Z,80.84
2016-10-23T05:20:03.880Z,80.27
2016-10-23T05:21:16.929Z,81.13
2016-10-23T05:22:29.831Z,80.75
2016-10-23T05:23:42.247Z,81.04
2016-10-23T05:24:55.180Z,80.55
2016-10-23T05:26:08.111Z,80.94
2016-10-23T05:27:21.538Z,80.75
2016-10-23T05:28:34.454Z,80.84
2016-10-23T05:29:47.312Z,81.04
2016-10-23T05:31:00.762Z,80.94
2016-10-23T05:32:13.805Z,80.84
2016-10-23T05:33:26.693Z,80.84
2016-10-23T05:34:39.656Z,80.55
2016-10-23T05:35:52.631Z,80.84
2016-10-23T05:37:06.170Z,80.07
2016-10-23T05:38:19.155Z,80.36
2016-10-23T05:39:32.098Z,80.65
2016-10-23T05:40:45.537Z,80.27
2016-10-23T05:41:57.886Z,80.36
2016-10-23T05:43:09.928Z,79.98
2016-10-23T05:44:22.484Z,80.27
2016-10-23T05:45:35.941Z,80.27
2016-10-23T05:46:47.793Z,80.27
2016-10-23T05:48:01.302Z,80.27
2016-10-23T05:49:13.705Z,80.07
2016-10-23T05:50:26.134Z,80.07
2016-10-23T05:51:39.553Z,80.17
2016-10-23T05:52:51.978Z,79.98
2016-10-23T05:54:05.553Z,80.36
2016-10-23T05:55:18.416Z,80.65
2016-10-23T05:56:31.385Z,80.65
2016-10-23T05:57:44.247Z,80.27
2016-10-23T05:58:57.726Z,80.55
2016-10-23T06:00:10.181Z,80.65
2016-10-23T06:01:23.588Z,80.65
2016-10-23T06:02:37.095Z,80.17
2016-10-23T06:03:50.520Z,80.55
2016-10-23T06:05:04.089Z,80.27
2016-10-23T06:06:17.122Z,80.46
2016-10-23T06:07:30.579Z,80.46
2016-10-23T06:08:42.437Z,80.75
2016-10-23T06:09:55.466Z,81.04
2016-10-23T06:11:07.888Z,81.04
2016-10-23T06:12:20.785Z,81.04
2016-10-23T06:13:33.174Z,80.84
2016-10-23T06:14:46.676Z,80.94
2016-10-23T06:15:59.228Z,80.46
2016-10-23T06:17:12.194Z,80.65
2016-10-23T06:18:25.248Z,80.75
2016-10-23T06:19:38.173Z,81.04
2016-10-23T06:20:51.635Z,81.23
2016-10-23T06:22:05.208Z,81.23
2016-10-23T06:23:17.576Z,81.13
2016-10-23T06:24:30.440Z,81.04
2016-10-23T06:25:43.319Z,80.94
2016-10-23T06:26:56.398Z,81.13
2016-10-23T06:28:08.271Z,81.04
2016-10-23T06:29:21.324Z,81.23
2016-10-23T06:30:33.684Z,81.23
2016-10-23T06:31:46.103Z,81.32
2016-10-23T06:32:59.346Z,81.04
2016-10-23T06:34:12.226Z,81.13
2016-10-23T06:35:24.754Z,81.23
2016-10-23T06:36:37.675Z,81.13
2016-10-23T06:37:50.940Z,81.23
2016-10-23T06:39:03.005Z,81.32
2016-10-23T06:40:15.964Z,81.23
2016-10-23T06:41:29.063Z,80.94
2016-10-23T06:42:42.243Z,81.13
2016-10-23T06:43:55.205Z,81.13
2016-10-23T06:45:07.675Z,81.13
2016-10-23T06:46:19.172Z,81.04
2016-10-23T06:47:31.728Z,81.13
2016-10-23T06:48:44.695Z,81.13
2016-10-23T06:49:58.339Z,81.42
2016-10-23T06:51:11.557Z,81.61
2016-10-23T06:52:23.990Z,81.42
2016-10-23T06:53:37.402Z,81.42
2016-10-23T06:54:50.823Z,81.04
2016-10-23T06:56:03.202Z,80.94
2016-10-23T06:57:15.799Z,80.94
2016-10-23T06:58:29.260Z,81.52
2016-10-23T06:59:42.287Z,81.61
2016-10-23T07:00:55.782Z,81.32
2016-10-23T07:02:08.168Z,81.42
2016-10-23T07:03:21.749Z,81.32
2016-10-23T07:04:34.711Z,81.52
2016-10-23T07:05:48.158Z,81.42
2016-10-23T07:07:00.073Z,81.52
2016-10-23T07:08:13.716Z,81.42
2016-10-23T07:09:26.689Z,81.42
2016-10-23T07:10:39.723Z,81.52
2016-10-23T07:11:52.637Z,81.81
2016-10-23T07:13:06.067Z,81.61
2016-10-23T07:14:19.024Z,81.9
2016-10-23T07:15:31.952Z,81.61
2016-10-23T07:16:44.459Z,81.99
2016-10-23T07:17:57.416Z,81.71
2016-10-23T07:19:10.853Z,81.99
2016-10-23T07:20:24.349Z,81.9
2016-10-23T07:21:37.902Z,82.09
2016-10-23T07:22:50.857Z,81.99
2016-10-23T07:24:04.300Z,81.81
2016-10-23T07:25:15.669Z,81.99
2016-10-23T07:26:28.009Z,82.09
2016-10-23T07:27:40.534Z,81.9
2016-10-23T07:28:52.882Z,81.99
2016-10-23T07:30:06.301Z,81.99
2016-10-23T07:31:19.203Z,81.81
2016-10-23T07:32:31.714Z,81.81
2016-10-23T07:33:45.266Z,81.99
2016-10-23T07:34:58.827Z,81.81
2016-10-23T07:36:11.730Z,82.09
2016-10-23T07:37:25.255Z,81.81
2016-10-23T07:38:37.197Z,82.29
2016-10-23T07:39:50.683Z,81.9
2016-10-23T07:41:03.620Z,82.29
2016-10-23T07:42:15.450Z,82.38
2016-10-23T07:43:27.920Z,82.09
2016-10-23T07:44:41.396Z,82.19
2016-10-23T07:45:53.798Z,82.29
2016-10-23T07:47:06.778Z,82.48
2016-10-23T07:48:19.739Z,82.19
2016-10-23T07:49:33.238Z,82.67
2016-10-23T07:50:46.191Z,82.29
2016-10-23T07:51:59.082Z,82.09
2016-10-23T07:53:12.543Z,81.99
2016-10-23T07:54:25.555Z,82.29
2016-10-23T07:55:39.019Z,81.99
2016-10-23T07:56:52.019Z,82.09
2016-10-23T07:58:04.935Z,81.99
2016-10-23T07:59:17.861Z,82.19
2016-10-23T08:00:30.936Z,82.29
2016-10-23T08:01:44.353Z,82.57
2016-10-23T08:02:57.819Z,82.09
2016-10-23T08:04:10.211Z,81.99
2016-10-23T08:05:23.795Z,81.9
2016-10-23T08:06:36.674Z,82.29
2016-10-23T08:07:49.668Z,81.81
2016-10-23T08:09:02.629Z,82.09
2016-10-23T08:10:15.064Z,82.29
2016-10-23T08:11:28.531Z,82.67
2016-10-23T08:12:40.963Z,82.38
2016-10-23T08:13:53.844Z,82.38
2016-10-23T08:15:07.305Z,82.57
2016-10-23T08:16:20.802Z,82.57
2016-10-23T08:17:33.753Z,82.48
2016-10-23T08:18:46.667Z,82.48
2016-10-23T08:19:59.570Z,82.43
2016-10-23T08:21:13.079Z,82.48
2016-10-23T08:22:26.601Z,82.57
2016-10-23T08:23:40.060Z,82.57
2016-10-23T08:24:53.036Z,82.48
2016-10-23T08:26:05.420Z,82.57
2016-10-23T08:27:17.933Z,82.57
2016-10-23T08:28:31.409Z,82.48
2016-10-23T08:29:44.331Z,82.38
2016-10-23T08:30:57.261Z,82.57
2016-10-23T08:32:10.160Z,82.57
2016-10-23T08:33:23.600Z,82.34
2016-10-23T08:34:36.512Z,82.29
2016-10-23T08:35:49.396Z,82.63
2016-10-23T08:37:02.359Z,82.53
2016-10-23T08:38:15.413Z,82.29
2016-10-23T08:39:27.350Z,82.29
2016-10-23T08:40:39.777Z,82.38
2016-10-23T08:41:52.677Z,82.38
2016-10-23T08:43:06.121Z,82.67
2016-10-23T08:44:19.067Z,82.09
2016-10-23T08:45:32.476Z,81.81
2016-10-23T08:46:44.897Z,81.96
2016-10-23T08:47:57.847Z,81.99
2016-10-23T08:49:09.865Z,81.99
2016-10-23T08:50:22.317Z,82.19
2016-10-23T08:51:35.266Z,82.29
2016-10-23T08:52:48.777Z,82.57
2016-10-23T08:54:01.704Z,82.19
2016-10-23T08:55:14.153Z,81.81
2016-10-23T08:56:27.094Z,81.99
2016-10-23T08:57:40.099Z,81.99
2016-10-23T08:58:52.434Z,81.52
2016-10-23T09:00:05.966Z,81.71
2016-10-23T09:01:18.892Z,81.71
2016-10-23T09:02:32.308Z,81.81
2016-10-23T09:03:45.737Z,81.81
2016-10-23T09:04:58.588Z,81.52
2016-10-23T09:06:11.006Z,81.71
2016-10-23T09:07:23.880Z,81.71
2016-10-23T09:08:36.287Z,81.04
2016-10-23T09:09:49.220Z,80.94
2016-10-23T09:11:01.194Z,81.23
2016-10-23T09:12:13.608Z,80.79
2016-10-23T09:13:27.090Z,80.79
2016-10-23T09:14:39.542Z,80.98
2016-10-23T09:15:52.447Z,80.6
2016-10-23T09:17:04.340Z,80.5
2016-10-23T09:18:17.287Z,80.6
2016-10-23T09:19:30.707Z,80.21
2016-10-23T09:20:44.123Z,80.11
2016-10-23T09:21:55.568Z,80.02
2016-10-23T09:23:09.016Z,79.25
2016-10-23T09:24:21.444Z,79.44
2016-10-23T09:25:34.919Z,79.67
2016-10-23T09:26:47.982Z,79.28
2016-10-23T09:28:01.489Z,78.9
2016-10-23T09:29:14.967Z,79
2016-10-23T09:30:27.390Z,78.81
2016-10-23T09:31:40.292Z,78.81
2016-10-23T09:32:51.750Z,77.84
2016-10-23T09:34:04.204Z,78.23
2016-10-23T09:35:17.138Z,78.33
2016-10-23T09:36:30.604Z,78.03
2016-10-23T09:37:44.045Z,78.27
2016-10-23T09:38:57.052Z,78.08
2016-10-23T09:40:09.960Z,77.65
2016-10-23T09:41:23.421Z,77.69
2016-10-23T09:42:36.955Z,77.5
2016-10-23T09:43:49.959Z,77.21
2016-10-23T09:45:01.807Z,77.01
2016-10-23T09:46:14.217Z,77.21
2016-10-23T09:47:26.622Z,76.53
2016-10-23T09:48:39.014Z,76.92
2016-10-23T09:49:51.920Z,76.44
2016-10-23T09:51:04.888Z,76.34
2016-10-23T09:52:17.796Z,75.8
2016-10-23T09:53:31.260Z,76.09
2016-10-23T09:54:44.417Z,75.42
2016-10-23T09:55:57.912Z,75.51
2016-10-23T09:57:11.406Z,75.03
2016-10-23T09:58:24.394Z,74.55
2016-10-23T09:59:37.350Z,74.74
2016-10-23T10:00:50.940Z,74.2
2016-10-23T10:02:03.850Z,73.91
2016-10-23T10:03:16.748Z,73.53
2016-10-23T10:04:29.719Z,73.24
2016-10-23T10:05:41.249Z,73.27
2016-10-23T10:06:54.199Z,72.79
2016-10-23T10:08:07.128Z,72.02
2016-10-23T10:09:20.615Z,71.83
2016-10-23T10:10:33.588Z,71.83
2016-10-23T10:11:47.297Z,71.86
2016-10-23T10:12:59.214Z,71.28
2016-10-23T10:14:12.673Z,70.9
2016-10-23T10:15:26.225Z,70.61
2016-10-23T10:16:39.311Z,71
2016-10-23T10:17:52.303Z,70.03
2016-10-23T10:19:05.268Z,69.93
2016-10-23T10:20:18.338Z,69.35
2016-10-23T10:21:31.258Z,68.87
2016-10-23T10:22:44.465Z,68.52
2016-10-23T10:23:57.860Z,68.23
2016-10-23T10:25:11.305Z,68.43
2016-10-23T10:26:24.747Z,67.46
2016-10-23T10:27:38.297Z,67.3
2016-10-23T10:28:51.273Z,66.43
2016-10-23T10:30:04.284Z,66.53
2016-10-23T10:31:17.224Z,66.53
2016-10-23T10:32:30.202Z,66.43
2016-10-23T10:33:43.339Z,66.24
2016-10-23T10:34:56.376Z,66.17
2016-10-23T10:36:08.860Z,66.17
2016-10-23T10:37:21.386Z,65.5
2016-10-23T10:38:34.433Z,65.4
2016-10-23T10:39:47.420Z,65.88
2016-10-23T10:40:59.802Z,65.4
2016-10-23T10:42:13.242Z,64.92
2016-10-23T10:43:26.141Z,64.24
2016-10-23T10:44:38.619Z,64.63
2016-10-23T10:45:51.542Z,64.43
2016-10-23T10:47:05.009Z,64.18
2016-10-23T10:48:17.948Z,63.79
2016-10-23T10:49:31.521Z,63.69
2016-10-23T10:50:44.482Z,62.85
2016-10-23T10:51:57.968Z,62.76
2016-10-23T10:53:10.966Z,62.47
2016-10-23T10:54:23.924Z,62.27
2016-10-23T10:55:37.512Z,61.79
2016-10-23T10:56:50.487Z,61.79
2016-10-23T10:58:03.420Z,61.82
2016-10-23T10:59:15.886Z,61.92
2016-10-23T11:00:28.916Z,61.89
2016-10-23T11:01:42.380Z,61.63
2016-10-23T11:02:55.949Z,61.15
2016-10-23T11:04:08.900Z,60.95
2016-10-23T11:05:22.433Z,60.85
2016-10-23T11:06:34.449Z,60.57
2016-10-23T11:07:48.169Z,60.47
2016-10-23T11:09:01.726Z,60.4
2016-10-23T11:10:13.890Z,59.91
2016-10-23T11:11:26.885Z,59.14
2016-10-23T11:12:40.319Z,59.17
2016-10-23T11:13:53.292Z,58.39
2016-10-23T11:15:06.301Z,57.91
2016-10-23T11:16:19.731Z,57.91
2016-10-23T11:17:33.218Z,58.2
2016-10-23T11:18:46.163Z,57.91
2016-10-23T11:19:59.053Z,58.11
2016-10-23T11:21:11.473Z,58.2
2016-10-23T11:22:24.082Z,58.98
2016-10-23T11:23:36.111Z,58.78
2016-10-23T11:24:49.252Z,58.49
2016-10-23T11:26:02.729Z,58.2
2016-10-23T11:27:16.238Z,58.2
2016-10-23T11:28:29.212Z,57.91
2016-10-23T11:29:42.166Z,57.62
2016-10-23T11:30:55.040Z,57.23
2016-10-23T11:32:08.508Z,56.65
2016-10-23T11:33:22.167Z,56.39
2016-10-23T11:34:35.131Z,56.1
2016-10-23T11:35:48.588Z,55.64
2016-10-23T11:37:02.150Z,55.44
2016-10-23T11:38:15.613Z,55.26
2016-10-23T11:39:27.540Z,55.26
2016-10-23T11:40:40.466Z,54.96
2016-10-23T11:41:53.419Z,54.86
2016-10-23T11:43:06.879Z,54.96
2016-10-23T11:44:20.037Z,54.96
2016-10-23T11:45:33.510Z,55.26
2016-10-23T11:46:46.410Z,54.77
2016-10-23T11:47:59.391Z,54.41
2016-10-23T11:49:12.949Z,54.11
2016-10-23T11:50:26.021Z,53.83
2016-10-23T11:51:39.494Z,53.83
2016-10-23T11:52:52.452Z,53.34
2016-10-23T11:54:06.057Z,53.53
2016-10-23T11:55:18.629Z,53.34
2016-10-23T11:56:31.566Z,53.44
2016-10-23T11:57:44.735Z,53.8
2016-10-23T11:58:58.466Z,53.73
2016-10-23T12:00:10.868Z,53.7
2016-10-23T12:01:23.965Z,53.51
2016-10-23T12:02:35.363Z,53.44
2016-10-23T12:03:48.859Z,53.34
2016-10-23T12:05:02.407Z,53.44
2016-10-23T12:06:14.937Z,53.73
2016-10-23T12:07:28.362Z,53.73
2016-10-23T12:08:41.840Z,53.24
2016-10-23T12:09:54.310Z,53.41
2016-10-23T12:11:07.307Z,53.53
2016-10-23T12:12:20.916Z,53.53
2016-10-23T12:13:33.363Z,53.31
2016-10-23T12:14:46.348Z,53.61
2016-10-23T12:15:59.315Z,53.8
2016-10-23T12:17:12.936Z,53.7
2016-10-23T12:18:26.591Z,54.09
2016-10-23T12:19:40.133Z,53.99
2016-10-23T12:20:53.110Z,53.7
2016-10-23T12:22:06.054Z,53.61
2016-10-23T12:23:19.086Z,53.7
2016-10-23T12:24:32.278Z,53.7
2016-10-23T12:25:45.468Z,53.7
2016-10-23T12:26:59.116Z,53.53
2016-10-23T12:28:11.911Z,53.31
2016-10-23T12:29:24.920Z,53.24
2016-10-23T12:30:37.888Z,53.02
2016-10-23T12:31:51.578Z,53.12
2016-10-23T12:33:04.384Z,53.22
2016-10-23T12:34:17.114Z,52.93
2016-10-23T12:35:30.595Z,53.31
2016-10-23T12:36:42.468Z,52.95
2016-10-23T12:37:55.239Z,53.15
2016-10-23T12:39:08.517Z,52.95
2016-10-23T12:40:21.001Z,53.24
2016-10-23T12:41:33.999Z,52.66
2016-10-23T12:42:47.122Z,52.56
2016-10-23T12:43:59.366Z,51.81
2016-10-23T12:45:13.095Z,51.81
2016-10-23T12:46:25.561Z,51.72
2016-10-23T12:47:38.032Z,51.53
2016-10-23T12:48:50.956Z,51.53
2016-10-23T12:50:04.088Z,51.91
2016-10-23T12:51:17.110Z,51.33
2016-10-23T12:52:30.084Z,50.84
2016-10-23T12:53:43.674Z,51.75
2016-10-23T12:54:56.602Z,50.58
2016-10-23T12:56:09.576Z,50.68
2016-10-23T12:57:23.065Z,50.94
2016-10-23T12:58:36.515Z,51.91
2016-10-23T12:59:49.495Z,51.91
2016-10-23T13:01:03.149Z,51.72
2016-10-23T13:02:15.657Z,51.79
2016-10-23T13:03:29.128Z,52.18
2016-10-23T13:04:42.096Z,51.81
2016-10-23T13:05:55.002Z,51.81
2016-10-23T13:07:08.635Z,51.62
2016-10-23T13:08:21.625Z,51.35
2016-10-23T13:09:35.027Z,51.65
2016-10-23T13:10:48.517Z,50.96
2016-10-23T13:12:02.146Z,50.6
2016-10-23T13:13:15.086Z,50.41
2016-10-23T13:14:28.001Z,49.54
2016-10-23T13:15:39.899Z,49.63
2016-10-23T13:16:52.850Z,49.63
2016-10-23T13:18:04.841Z,49.54
2016-10-23T13:19:17.763Z,49.15
2016-10-23T13:20:30.696Z,49.15
2016-10-23T13:21:43.622Z,49.37
2016-10-23T13:22:57.283Z,49.17
2016-10-23T13:24:09.666Z,49.07
2016-10-23T13:25:21.517Z,48.68
2016-10-23T13:26:34.482Z,48.68
2016-10-23T13:27:46.892Z,48.58
2016-10-23T13:28:59.294Z,48.88
2016-10-23T13:30:12.826Z,48.49
2016-10-23T13:31:25.294Z,48.3
2016-10-23T13:32:38.225Z,48.3
2016-10-23T13:33:51.803Z,48.2
2016-10-23T13:35:04.201Z,48.39
2016-10-23T13:36:17.144Z,48.1
2016-10-23T13:37:30.615Z,48.39
2016-10-23T13:38:43.087Z,47.91
2016-10-23T13:39:56.051Z,47.64
2016-10-23T13:41:09.038Z,47.56
2016-10-23T13:42:22.264Z,46.71
2016-10-23T13:43:34.636Z,46.34
2016-10-23T13:44:46.659Z,46.05
2016-10-23T13:45:59.151Z,45.59
2016-10-23T13:47:11.588Z,46
2016-10-23T13:48:25.095Z,45.03
2016-10-23T13:49:38.067Z,44.27
2016-10-23T13:50:51.059Z,44.87
2016-10-23T13:52:04.547Z,44.09
2016-10-23T13:53:18.098Z,43.14
2016-10-23T13:54:30.518Z,42.85
2016-10-23T13:55:43.613Z,42.85
2016-10-23T13:56:57.063Z,42.65
2016-10-23T13:58:10.558Z,42.58
2016-10-23T13:59:23.479Z,42.38
2016-10-23T14:00:37.003Z,41.99
2016-10-23T14:01:50.445Z,41.62
2016-10-23T14:03:03.403Z,41.25
2016-10-23T14:04:16.377Z,40.66
2016-10-23T14:05:28.820Z,40.86
2016-10-23T14:06:41.383Z,40.78
2016-10-23T14:07:54.816Z,40.95
2016-10-23T14:09:07.761Z,40.66
2016-10-23T14:10:20.142Z,40.58
2016-10-23T14:11:33.061Z,40.47
2016-10-23T14:12:46.696Z,40.48
2016-10-23T14:14:00.203Z,40.95
2016-10-23T14:15:12.155Z,40.56
2016-10-23T14:16:25.067Z,40.48
2016-10-23T14:17:37.596Z,40.78
2016-10-23T14:18:50.591Z,41.05
2016-10-23T14:20:03.501Z,41.15
2016-10-23T14:21:15.910Z,41.25
2016-10-23T14:22:28.334Z,41.35
2016-10-23T14:23:41.882Z,41.44
2016-10-23T14:24:54.319Z,40.95
2016-10-23T14:26:07.798Z,40.97
2016-10-23T14:27:21.345Z,40.09
2016-10-23T14:28:34.484Z,39.72
2016-10-23T14:29:47.384Z,39.92
2016-10-23T14:31:00.301Z,39.06
2016-10-23T14:32:13.253Z,37.81
2016-10-23T14:33:26.220Z,37.04
2016-10-23T14:34:39.666Z,36.37
2016-10-23T14:35:51.530Z,36.29
2016-10-23T14:37:03.969Z,35.64
2016-10-23T14:38:16.932Z,34.47
2016-10-23T14:39:29.973Z,33.92
2016-10-23T14:40:43.449Z,33.34
2016-10-23T14:41:55.333Z,32.77
2016-10-23T14:43:08.265Z,31.52
2016-10-23T14:44:21.232Z,31.13
2016-10-23T14:45:33.666Z,30.65
2016-10-23T14:46:46.673Z,29.68
2016-10-23T14:48:00.181Z,29.1
2016-10-23T14:49:13.675Z,28.52
2016-10-23T14:50:27.296Z,28.05
2016-10-23T14:51:40.294Z,27.26
2016-10-23T14:52:53.284Z,27.28
2016-10-23T14:54:06.762Z,26.31
2016-10-23T14:55:19.177Z,26.21
2016-10-23T14:56:32.276Z,25.54
2016-10-23T14:57:45.228Z,25.05
2016-10-23T14:58:58.732Z,24.57
2016-10-23T15:00:10.639Z,24.27
2016-10-23T15:01:24.194Z,23.69
2016-10-23T15:02:37.676Z,23.11
2016-10-23T15:03:51.127Z,22.62
2016-10-23T15:05:02.987Z,22.14
2016-10-23T15:06:16.570Z,20.87
2016-10-23T15:07:29.271Z,20.78
2016-10-23T15:08:41.233Z,20.29
2016-10-23T15:09:54.727Z,19.7
2016-10-23T15:11:07.644Z,20.01
2016-10-23T15:12:21.253Z,19.41
2016-10-23T15:13:33.192Z,19.41
2016-10-23T15:14:46.692Z,19.91
2016-10-23T15:15:59.646Z,20.11
2016-10-23T15:17:13.130Z,19.7
2016-10-23T15:18:25.630Z,19.9
2016-10-23T15:19:38.006Z,19.31
2016-10-23T15:20:50.988Z,19.2
2016-10-23T15:22:03.983Z,19.31
2016-10-23T15:23:17.600Z,18.82
2016-10-23T15:24:30.547Z,18.32
2016-10-23T15:25:42.515Z,18.13
2016-10-23T15:26:55.433Z,17.85
2016-10-23T15:28:08.350Z,17.57
2016-10-23T15:29:21.831Z,16.78
2016-10-23T15:30:35.299Z,16.39
2016-10-23T15:31:48.877Z,16.1
2016-10-23T15:33:01.825Z,15.91
2016-10-23T15:34:14.412Z,14.72
2016-10-23T15:35:27.923Z,13.92
2016-10-23T15:36:40.389Z,14.13
2016-10-23T15:37:53.369Z,13.93
2016-10-23T15:39:05.867Z,13.84
2016-10-23T15:40:19.343Z,13.74
2016-10-23T15:41:31.812Z,13.74
2016-10-23T15:42:44.795Z,13.75
2016-10-23T15:43:58.265Z,13.15